Time;durP1;ratioP1;P1;durP2;ratioP2;P2;SDS_P1;SDS_P2;PMS_P1;PMS_P2;Temp;Humidity;BMP_temperature;BMP_pressure;BME280_temperature;BME280_humidity;BME280_pressure;Samples;Min_cycle;Max_cycle;Signal;HPM_P1;HPM_P2
2022/04/01 00:01:29;;;;;;;6.72;6.22;;;;;;;-0.36;100.00;160481.41;5059337;28;20043;-58
2022/04/01 00:03:54;;;;;;;9.98;6.32;;;;;;;-0.32;100.00;160492.09;5062808;28;20036;-58
2022/04/01 00:06:19;;;;;;;7.82;7.00;;;;;;;-0.34;100.00;160485.41;5061707;28;20415;-58
2022/04/01 00:08:45;;;;;;;7.05;6.43;;;;;;;-0.32;100.00;160492.09;5066287;28;20397;-57
2022/04/01 00:11:10;;;;;;;7.63;7.03;;;;;;;-0.28;100.00;160500.16;5060435;28;20064;-58
2022/04/01 00:13:35;;;;;;;12.50;7.60;;;;;;;-0.34;100.00;160486.78;5064026;28;20051;-58
2022/04/01 00:16:01;;;;;;;8.77;6.95;;;;;;;-0.30;100.00;160494.78;5062587;28;20032;-59
2022/04/01 00:18:26;;;;;;;7.22;6.60;;;;;;;-0.37;100.00;160478.72;5061837;28;20031;-59
2022/04/01 00:20:51;;;;;;;19.30;8.20;;;;;;;-0.37;100.00;160478.72;5065080;28;20082;-58
2022/04/01 00:23:17;;;;;;;6.68;6.18;;;;;;;-0.40;100.00;160470.66;5063112;28;20480;-58
2022/04/01 00:25:42;;;;;;;7.57;6.88;;;;;;;-0.39;100.00;160473.34;5062384;28;20017;-58
2022/04/01 00:28:09;;;;;;;8.05;7.05;;;;;;;-0.53;100.00;160435.84;5062754;28;20107;-58
2022/04/01 00:30:34;;;;;;;7.88;7.05;;;;;;;-0.38;100.00;160476.03;5062929;28;20358;-58
2022/04/01 00:33:00;;;;;;;7.60;7.00;;;;;;;-0.38;100.00;160474.72;5061305;28;20044;-59
2022/04/01 00:35:25;;;;;;;6.80;6.20;;;;;;;-0.38;100.00;160476.03;5065087;28;20036;-59
2022/04/01 00:37:52;;;;;;;8.88;7.60;;;;;;;-0.38;100.00;160474.72;5060874;28;20052;-59
2022/04/01 00:40:18;;;;;;;7.55;6.93;;;;;;;-0.41;100.00;160467.97;5062585;28;20029;-59
2022/04/01 00:42:45;;;;;;;7.18;6.53;;;;;;;-0.42;100.00;160465.34;5062601;28;20040;-59
2022/04/01 00:45:11;;;;;;;7.55;6.72;;;;;;;-0.42;100.00;160463.97;5063779;28;20494;-59
2022/04/01 00:47:37;;;;;;;9.30;7.95;;;;;;;-0.41;100.00;160466.66;5061087;28;20045;-59
2022/04/01 00:50:03;;;;;;;8.35;7.55;;;;;;;-0.40;100.00;160469.34;5062236;28;20491;-59
2022/04/01 00:52:28;;;;;;;7.78;6.60;;;;;;;-0.42;100.00;160465.34;5064756;28;20048;-59
2022/04/01 00:54:53;;;;;;;8.25;6.82;;;;;;;-0.41;100.00;160467.97;5062174;28;20055;-59
2022/04/01 00:57:19;;;;;;;8.63;7.93;;;;;;;-0.40;100.00;160469.34;5060658;28;20032;-59
2022/04/01 00:59:45;;;;;;;7.78;7.18;;;;;;;-0.40;100.00;160470.66;5063721;28;20102;-59
2022/04/01 01:02:14;;;;;;;9.18;8.38;;;;;;;-0.47;100.00;160450.59;5059884;28;20417;-59
2022/04/01 01:04:41;;;;;;;10.40;9.45;;;;;;;-0.37;100.00;160478.72;5062079;28;20074;-59
2022/04/01 01:07:06;;;;;;;9.98;8.95;;;;;;;-0.38;100.00;160476.03;5061460;28;20053;-59
2022/04/01 01:09:32;;;;;;;9.80;8.93;;;;;;;-0.40;100.00;160470.66;5065494;28;20070;-59
2022/04/01 01:11:57;;;;;;;10.32;8.55;;;;;;;-0.42;100.00;160465.34;5060501;28;20044;-58
2022/04/01 01:14:34;;;;;;;9.45;8.65;;;;;;;-0.45;100.00;160457.28;5061025;28;20047;-58
2022/04/01 01:17:02;;;;;;;12.15;9.57;;;;;;;-0.51;100.00;160441.22;5060994;28;20046;-58
2022/04/01 01:19:28;;;;;;;10.23;9.15;;;;;;;-0.54;100.00;160433.16;5062905;28;20020;-58
2022/04/01 01:21:56;;;;;;;10.27;9.27;;;;;;;-0.57;100.00;160425.13;5060166;28;20045;-58
2022/04/01 01:24:29;;;;;;;11.38;10.27;;;;;;;-0.65;100.00;160406.38;5064243;28;20020;-58
2022/04/01 01:26:55;;;;;;;11.85;10.63;;;;;;;-0.62;100.00;160413.06;5060005;28;20463;-58
2022/04/01 01:29:30;;;;;;;11.05;10.05;;;;;;;-0.66;100.00;160403.69;5061651;28;20472;-58
2022/04/01 01:31:59;;;;;;;11.10;10.10;;;;;;;-0.71;100.00;160388.97;5060272;28;20718;-57
2022/04/01 01:34:25;;;;;;;12.32;10.55;;;;;;;-0.74;100.00;160380.91;5060873;28;20044;-57
2022/04/01 01:36:52;;;;;;;11.68;10.40;;;;;;;-0.75;100.00;160379.59;5061827;28;20137;-58
2022/04/01 01:39:18;;;;;;;11.98;10.88;;;;;;;-0.75;100.00;160379.59;5061915;28;20024;-57
2022/04/01 01:41:45;;;;;;;12.25;11.10;;;;;;;-0.75;100.00;160379.59;5060818;28;20087;-58
2022/04/01 01:44:12;;;;;;;11.88;10.55;;;;;;;-0.81;100.00;160363.53;5060441;28;20103;-58
2022/04/01 01:46:38;;;;;;;11.35;10.25;;;;;;;-0.80;100.00;160367.53;5053511;28;20041;-58
2022/04/01 01:49:04;;;;;;;11.70;10.32;;;;;;;-0.80;100.00;160366.22;5044813;28;20037;-57
2022/04/01 01:56:59;;;;;;;12.18;10.88;;;;;;;-0.88;100.00;160344.78;5051033;28;20596;-58
2022/04/01 01:59:24;;;;;;;11.93;10.85;;;;;;;-0.88;100.00;160346.09;5053860;28;20032;-57
2022/04/01 02:01:50;;;;;;;14.43;9.73;;;;;;;-0.89;100.00;160342.09;5058622;28;20036;-58
2022/04/01 02:04:15;;;;;;;13.15;11.88;;;;;;;-0.89;100.00;160342.09;5061426;28;20036;-58
2022/04/01 02:06:41;;;;;;;11.38;10.27;;;;;;;-0.85;100.00;160352.78;5060266;28;20033;-58
2022/04/01 02:09:06;;;;;;;12.95;11.75;;;;;;;-0.85;100.00;160352.78;5060020;28;20024;-58
2022/04/01 02:11:31;;;;;;;13.65;12.23;;;;;;;-0.84;100.00;160355.47;5062020;28;20041;-59
2022/04/01 02:13:57;;;;;;;11.68;10.30;;;;;;;-0.82;100.00;160360.84;5061465;28;20024;-59
2022/04/01 02:16:23;;;;;;;10.68;9.68;;;;;;;-0.86;100.00;160350.16;5060175;28;20047;-60
2022/04/01 02:18:49;;;;;;;10.68;9.65;;;;;;;-0.90;100.00;160339.41;5061921;28;20024;-60
2022/04/01 02:21:16;;;;;;;10.35;9.40;;;;;;;-0.89;100.00;160342.09;5067591;28;20431;-59
2022/04/01 02:23:44;;;;;;;11.50;10.38;;;;;;;-0.85;100.00;160354.16;5071745;28;20024;-59
2022/04/01 02:26:10;;;;;;;10.93;9.82;;;;;;;-0.91;100.00;160336.72;5068745;28;20387;-59
2022/04/01 02:28:39;;;;;;;14.20;10.73;;;;;;;-0.94;100.00;160328.72;5071703;28;20060;-59
2022/04/01 02:31:05;;;;;;;10.23;9.32;;;;;;;-0.94;100.00;160328.72;5069665;28;20142;-59
2022/04/01 02:33:31;;;;;;;10.20;9.27;;;;;;;-1.01;100.00;160312.66;5070867;28;20038;-59
2022/04/01 02:35:57;;;;;;;10.45;9.35;;;;;;;-0.99;100.00;160317.97;5069795;28;20026;-59
2022/04/01 02:38:27;;;;;;;11.30;9.98;;;;;;;-0.99;100.00;160316.66;5070797;28;20024;-59
2022/04/01 02:40:53;;;;;;;10.00;9.02;;;;;;;-0.98;100.00;160319.34;5069502;28;20032;-59
2022/04/01 02:43:19;;;;;;;10.43;9.35;;;;;;;-1.00;100.00;160313.97;5070982;28;20016;-59
2022/04/01 02:45:45;;;;;;;10.45;9.35;;;;;;;-0.98;100.00;160320.66;5071107;28;20029;-59
2022/04/01 02:48:11;;;;;;;10.73;9.73;;;;;;;-0.99;100.00;160316.66;5069227;28;20523;-59
2022/04/01 02:50:37;;;;;;;11.32;10.25;;;;;;;-1.02;100.00;160309.97;5071374;28;20035;-59
2022/04/01 02:53:02;;;;;;;16.38;13.50;;;;;;;-1.02;100.00;160309.97;5069855;28;20154;-59
2022/04/01 02:55:27;;;;;;;16.98;15.15;;;;;;;-1.01;100.00;160312.66;5070425;28;20028;-58
2022/04/01 02:57:53;;;;;;;17.60;15.80;;;;;;;-1.06;100.00;160299.22;5069911;28;20458;-59
2022/04/01 03:00:21;;;;;;;19.95;17.75;;;;;;;-1.04;100.00;160304.59;5070857;28;20020;-59
2022/04/01 03:02:47;;;;;;;19.10;16.40;;;;;;;-1.04;100.00;160304.59;5069335;28;20178;-59
2022/04/01 03:05:13;;;;;;;19.23;17.23;;;;;;;-1.02;100.00;160309.97;5070729;28;20024;-59
2022/04/01 03:07:38;;;;;;;18.35;16.65;;;;;;;-1.03;100.00;160307.28;5069718;28;20048;-59
2022/04/01 03:10:04;;;;;;;20.83;15.43;;;;;;;-1.03;100.00;160307.28;5070314;28;20044;-59
2022/04/01 03:12:30;;;;;;;17.35;15.65;;;;;;;-1.05;100.00;160301.91;5068166;28;20131;-59
2022/04/01 03:14:56;;;;;;;15.52;13.88;;;;;;;-1.06;100.00;160299.22;5070922;28;20020;-58
2022/04/01 03:17:21;;;;;;;14.77;13.20;;;;;;;-1.02;100.00;160309.97;5068997;28;20036;-59
2022/04/01 03:19:47;;;;;;;14.95;13.45;;;;;;;-1.02;100.00;160309.97;5071039;28;20028;-59
2022/04/01 03:22:12;;;;;;;13.52;11.50;;;;;;;-1.01;100.00;160311.28;5069241;28;20036;-59
2022/04/01 03:24:37;;;;;;;14.30;12.90;;;;;;;-1.01;100.00;160311.28;5070324;28;20028;-59
2022/04/01 03:27:04;;;;;;;17.33;13.57;;;;;;;-1.01;100.00;160312.66;5069462;28;20055;-59
2022/04/01 03:29:31;;;;;;;14.25;11.93;;;;;;;-1.01;100.00;160312.66;5070453;28;20491;-59
2022/04/01 03:31:57;;;;;;;14.68;11.55;;;;;;;-0.98;100.00;160320.66;5069068;28;20127;-59
2022/04/01 03:34:23;;;;;;;12.82;10.82;;;;;;;-1.01;100.00;160311.28;5070674;28;20055;-59
2022/04/01 03:36:48;;;;;;;11.18;10.10;;;;;;;-1.00;100.00;160313.97;5069630;28;20087;-58
2022/04/01 03:39:15;;;;;;;10.90;9.43;;;;;;;-1.01;100.00;160312.66;5074225;28;20025;-59
2022/04/01 03:41:41;;;;;;;12.45;9.80;;;;;;;-1.01;100.00;160312.66;5073257;28;20040;-59
2022/04/01 03:44:06;;;;;;;10.77;9.85;;;;;;;-1.01;100.00;160312.66;5074579;28;20287;-59
2022/04/01 03:47:02;;;;;;;11.15;9.55;;;;;;;-1.02;100.00;160308.59;5072530;28;20495;-58
2022/04/01 03:49:32;;;;;;;13.55;12.18;;;;;;;-1.03;100.00;160307.28;5070805;28;20128;-59
2022/04/01 03:52:00;;;;;;;9.73;8.80;;;;;;;-1.05;100.00;160301.91;5072883;28;20529;-59
2022/04/01 03:54:26;;;;;;;9.38;8.50;;;;;;;-1.07;100.00;160295.22;5074013;28;20031;-59
2022/04/01 03:57:00;;;;;;;11.40;9.00;;;;;;;-1.06;100.00;160299.22;5073005;28;20121;-59
2022/04/01 03:59:40;;;;;;;9.38;8.55;;;;;;;-1.08;100.00;160292.53;5073640;28;20103;-58
2022/04/01 04:02:09;;;;;;;9.20;8.40;;;;;;;-1.07;100.00;160296.53;5072525;28;20559;-59
2022/04/01 04:04:36;;;;;;;11.75;10.60;;;;;;;-1.06;100.00;160299.22;5074394;28;20052;-59
2022/04/01 04:07:06;;;;;;;9.77;8.82;;;;;;;-1.06;100.00;160297.91;5072452;28;20048;-59
2022/04/01 04:09:34;;;;;;;10.07;9.15;;;;;;;-1.12;100.00;160283.16;5073279;28;20028;-59
2022/04/01 04:12:01;;;;;;;12.47;9.47;;;;;;;-1.08;100.00;160293.84;5072404;28;20140;-55
2022/04/01 04:14:28;;;;;;;9.40;8.10;;;;;;;-1.05;100.00;160301.91;5073209;28;20533;-58
2022/04/01 04:16:56;;;;;;;11.98;9.02;;;;;;;-1.24;100.00;160251.03;5072140;28;20044;-58
2022/04/01 04:19:58;;;;;;;9.85;8.93;;;;;;;-1.08;100.00;160293.84;5073250;28;20099;-58
2022/04/01 04:22:32;;;;;;;9.43;8.20;;;;;;;-1.07;100.00;160296.53;5051930;28;20061;-58
2022/04/01 04:24:58;;;;;;;11.57;8.65;;;;;;;-1.08;100.00;160293.84;5053996;28;20032;-58
2022/04/01 04:27:29;;;;;;;9.70;8.68;;;;;;;-1.13;100.00;160280.47;5061025;28;20045;-58
2022/04/01 04:30:05;;;;;;;9.45;8.63;;;;;;;-1.24;100.00;160251.03;5073401;28;20058;-58
2022/04/01 04:32:42;;;;;;;9.40;8.40;;;;;;;-1.10;100.00;160288.53;5072210;28;20033;-58
2022/04/01 04:35:10;;;;;;;13.07;10.93;;;;;;;-1.08;100.00;160293.84;5071310;28;20425;-58
2022/04/01 04:37:42;;;;;;;9.75;8.75;;;;;;;-1.10;100.00;160288.53;5071841;28;20451;-58
2022/04/01 04:40:07;;;;;;;9.63;8.63;;;;;;;-1.10;100.00;160287.16;5073764;28;20020;-58
2022/04/01 04:42:33;;;;;;;10.27;9.27;;;;;;;-1.25;100.00;160248.38;5071489;28;20060;-58
2022/04/01 04:44:59;;;;;;;12.85;10.77;;;;;;;-1.24;100.00;160251.03;5072743;28;20502;-58
2022/04/01 04:47:32;;;;;;;15.25;9.82;;;;;;;-1.11;100.00;160285.84;5070298;28;20045;-58
2022/04/01 04:49:57;;;;;;;10.65;9.75;;;;;;;-1.14;100.00;160277.78;5072250;28;20016;-58
2022/04/01 04:52:32;;;;;;;11.35;10.25;;;;;;;-1.14;100.00;160279.16;5071518;28;20045;-58
2022/04/01 04:54:58;;;;;;;12.02;10.95;;;;;;;-1.20;100.00;160261.75;5073236;28;20452;-59
2022/04/01 04:57:26;;;;;;;13.82;11.48;;;;;;;-1.13;100.00;160280.47;5071527;28;20047;-58
2022/04/01 04:59:52;;;;;;;12.13;10.63;;;;;;;-1.18;100.00;160267.09;5073057;28;20060;-58
2022/04/01 05:02:43;;;;;;;12.77;11.55;;;;;;;-1.19;100.00;160264.41;5071442;28;20036;-58
2022/04/01 05:05:41;;;;;;;14.30;12.23;;;;;;;-1.19;100.00;160264.41;5073028;28;20020;-58
2022/04/01 05:08:42;;;;;;;13.15;11.93;;;;;;;-1.26;100.00;160245.69;5049834;28;20052;-58
2022/04/01 05:11:24;;;;;;;13.13;10.70;;;;;;;-1.25;100.00;160248.38;5053439;28;20522;-58
2022/04/01 05:13:59;;;;;;;12.32;11.13;;;;;;;-1.26;100.00;160245.69;5073195;28;20103;-58
2022/04/01 05:16:35;;;;;;;15.18;11.80;;;;;;;-1.26;100.00;160247.00;5071181;28;20040;-58
2022/04/01 05:19:17;;;;;;;19.75;9.85;;;;;;;-1.25;100.00;160248.38;5073083;28;20023;-58
2022/04/01 05:21:57;;;;;;;14.00;10.30;;;;;;;-1.28;100.00;160241.69;5064725;28;20131;-58
2022/04/01 05:24:48;;;;;;;10.70;8.85;;;;;;;-1.28;100.00;160243.00;5061592;28;20017;-58
2022/04/01 05:27:16;;;;;;;11.25;10.02;;;;;;;-1.26;100.00;160247.00;5057549;28;20041;-58
2022/04/01 05:29:42;;;;;;;7.72;7.03;;;;;;;-1.29;100.00;160239.00;5061327;28;20104;-58
2022/04/01 05:32:10;;;;;;;12.05;9.85;;;;;;;-1.24;100.00;160251.03;5061742;28;20032;-58
2022/04/01 05:34:45;;;;;;;7.95;7.25;;;;;;;-1.21;100.00;160259.06;5070319;28;20074;-58
2022/04/01 05:37:13;;;;;;;15.35;8.30;;;;;;;-1.22;100.00;160256.38;5061602;28;20048;-58
2022/04/01 05:39:40;;;;;;;11.32;8.68;;;;;;;-1.21;100.00;160259.06;5061779;28;20099;-58
2022/04/01 05:42:10;;;;;;;8.77;7.88;;;;;;;-1.21;100.00;160260.41;5061403;28;20044;-58
2022/04/01 05:44:37;;;;;;;16.05;9.68;;;;;;;-1.19;100.00;160264.41;5061394;28;20017;-57
2022/04/01 05:47:03;;;;;;;11.70;8.27;;;;;;;-1.14;100.00;160277.78;5059609;28;20056;-57
2022/04/01 05:49:30;;;;;;;9.27;8.35;;;;;;;-1.17;100.00;160269.78;5062689;28;20533;-57
2022/04/01 05:51:55;;;;;;;12.55;8.00;;;;;;;-1.18;100.00;160267.09;5059688;28;20051;-57
2022/04/01 05:54:22;;;;;;;8.38;7.55;;;;;;;-1.14;100.00;160279.16;5061032;28;20116;-58
2022/04/01 05:56:49;;;;;;;8.93;7.93;;;;;;;-1.12;100.00;160283.16;5061126;28;20039;-57
2022/04/01 05:59:16;;;;;;;10.00;7.88;;;;;;;-1.09;100.00;160291.22;5060572;28;20024;-57
2022/04/01 06:01:46;;;;;;;13.45;7.90;;;;;;;-1.07;100.00;160295.22;5059463;28;20070;-57
2022/04/01 06:04:34;;;;;;;9.35;7.57;;;;;;;-1.09;100.00;160291.22;5060517;28;20499;-57
2022/04/01 06:07:13;;;;;;;7.20;6.50;;;;;;;-1.10;100.00;160288.53;5059612;28;20041;-57
2022/04/01 06:09:58;;;;;;;7.50;6.70;;;;;;;-1.08;100.00;160292.53;5061349;28;20028;-57
2022/04/01 06:12:45;;;;;;;7.05;5.93;;;;;;;-1.06;100.00;160299.22;5060558;28;20041;-57
2022/04/01 06:15:37;;;;;;;11.23;8.20;;;;;;;-1.05;100.00;160300.59;5053652;28;20257;-59
2022/04/01 06:18:33;;;;;;;11.07;9.00;;;;;;;-1.02;100.00;160309.97;5051063;28;20055;-54
2022/04/01 06:21:03;;;;;;;8.63;6.43;;;;;;;-1.04;100.00;160304.59;5049981;28;20078;-55
2022/04/01 06:23:49;;;;;;;8.07;7.07;;;;;;;-1.04;100.00;160303.28;5051373;28;20113;-56
2022/04/01 06:26:14;;;;;;;9.13;6.22;;;;;;;-1.03;100.00;160307.28;5058800;28;20045;-54
2022/04/01 06:29:10;;;;;;;13.25;6.97;;;;;;;-0.98;100.00;160319.34;5051138;28;20028;-53
2022/04/01 06:31:36;;;;;;;8.40;7.55;;;;;;;-0.93;100.00;160331.41;5050327;28;20033;-55
2022/04/01 06:34:14;;;;;;;10.73;7.25;;;;;;;-0.92;100.00;160335.41;5051622;28;20058;-55
2022/04/01 06:36:41;;;;;;;;;;;;;;;-0.91;100.00;160336.72;5050347;28;20041;-55
2022/04/01 06:39:08;;;;;;;11.43;6.25;;;;;;;-0.97;100.00;160323.34;5051444;28;19916;-55
2022/04/01 06:41:41;;;;;;;9.07;6.55;;;;;;;-0.98;100.00;160320.66;5049886;28;20102;-55
2022/04/01 06:44:07;;;;;;;9.85;8.85;;;;;;;-0.94;100.00;160330.03;5051179;28;20024;-55
2022/04/01 06:46:32;;;;;;;9.38;6.53;;;;;;;-0.92;100.00;160334.03;5049550;28;20045;-55
2022/04/01 06:48:57;;;;;;;8.63;7.15;;;;;;;-0.93;100.00;160331.41;5051298;28;20024;-55
2022/04/01 06:51:23;;;;;;;7.22;6.60;;;;;;;-0.91;100.00;160336.72;5049361;28;20040;-55
2022/04/01 06:53:48;;;;;;;7.85;7.15;;;;;;;-1.01;100.00;160311.28;5051289;28;20024;-55
2022/04/01 06:56:13;;;;;;;6.78;6.22;;;;;;;-0.84;100.00;160356.81;5049524;28;20036;-55
2022/04/01 06:58:40;;;;;;;10.05;7.40;;;;;;;-0.83;100.00;160359.50;5050820;28;20048;-55
2022/04/01 07:01:05;;;;;;;10.52;8.02;;;;;;;-0.77;100.00;160374.22;5049791;28;20104;-55
2022/04/01 07:03:31;;;;;;;10.23;7.20;;;;;;;-0.73;100.00;160384.94;5050901;28;20028;-55
2022/04/01 07:05:58;;;;;;;7.60;6.10;;;;;;;-0.62;100.00;160411.72;5049286;28;20028;-55
2022/04/01 07:08:23;;;;;;;6.32;5.82;;;;;;;-0.60;100.00;160417.09;5050800;28;20021;-55
2022/04/01 07:10:50;;;;;;;8.43;7.63;;;;;;;-0.52;100.00;160438.53;5050991;28;20056;-55
2022/04/01 07:13:15;;;;;;;7.60;6.28;;;;;;;-0.61;100.00;160414.41;5048587;28;20056;-55
2022/04/01 07:15:41;;;;;;;7.50;6.25;;;;;;;-0.71;100.00;160390.28;5051124;28;20115;-55
2022/04/01 07:18:07;;;;;;;23.88;7.10;;;;;;;-0.59;100.00;160419.78;5049315;28;20041;-55
2022/04/01 07:20:33;;;;;;;6.05;5.47;;;;;;;-0.59;100.00;160421.09;5049478;28;20063;-55
2022/04/01 07:22:59;;;;;;;8.45;4.93;;;;;;;-0.55;100.00;160430.47;5053392;28;20041;-55
2022/04/01 07:25:25;;;;;;;8.55;4.65;;;;;;;-0.46;100.00;160453.25;5065079;28;20031;-54
2022/04/01 07:27:51;;;;;;;5.85;4.45;;;;;;;-0.41;100.00;160467.97;5054483;28;20043;-55
2022/04/01 07:30:17;;;;;;;5.13;4.57;;;;;;;-0.38;100.00;160476.03;5050498;28;20117;-55
2022/04/01 07:32:43;;;;;;;6.45;4.07;;;;;;;-0.32;100.00;160492.09;5064469;28;20407;-55
2022/04/01 07:35:11;;;;;;;6.18;4.63;;;;;;;-0.29;100.00;160498.78;5070244;28;20090;-57
2022/04/01 07:37:37;;;;;;;4.72;4.20;;;;;;;-0.23;100.00;160513.53;5069070;28;20758;-55
2022/04/01 07:40:05;;;;;;;5.70;4.68;;;;;;;-0.28;100.00;160501.47;5070623;28;20024;-55
2022/04/01 07:42:31;;;;;;;4.65;4.25;;;;;;;-0.09;100.00;160551.06;5068547;28;20044;-55
2022/04/01 07:44:56;;;;;;;7.18;5.45;;;;;;;0.08;100.00;160593.94;5070476;28;20030;-55
2022/04/01 07:47:22;;;;;;;5.85;4.07;;;;;;;0.25;100.00;160639.53;5068909;28;20504;-55
2022/04/01 07:49:50;;;;;;;11.02;4.93;;;;;;;0.44;100.00;160687.75;5061865;28;20051;-55
2022/04/01 07:52:18;;;;;;;13.02;5.65;;;;;;;0.38;100.00;160673.00;5048848;28;20048;-55
2022/04/01 07:54:45;;;;;;;5.53;4.97;;;;;;;0.24;100.00;160636.84;5050621;28;20040;-56
2022/04/01 07:57:12;;;;;;;7.22;5.18;;;;;;;0.17;100.00;160616.72;5048424;28;20045;-56
2022/04/01 07:59:39;;;;;;;8.77;5.00;;;;;;;0.13;100.00;160608.69;5049363;28;20395;-56
2022/04/01 08:02:05;;;;;;;6.68;5.65;;;;;;;0.21;100.00;160628.78;5048811;28;20716;-56
2022/04/01 08:04:31;;;;;;;6.60;6.00;;;;;;;0.24;100.00;160636.84;5049883;28;20610;-56
2022/04/01 08:06:57;;;;;;;5.88;5.00;;;;;;;0.25;100.00;160638.16;5048933;28;20044;-56
2022/04/01 08:09:26;;;;;;;6.07;5.40;;;;;;;0.15;100.00;160612.72;5050143;28;20021;-56
2022/04/01 08:11:53;;;;;;;6.00;5.40;;;;;;;-0.01;100.00;160572.50;5048617;28;20184;-56
2022/04/01 08:14:18;;;;;;;6.28;5.22;;;;;;;0.20;100.00;160626.09;5049444;28;20025;-56
2022/04/01 08:16:45;;;;;;;7.93;5.32;;;;;;;0.15;100.00;160612.72;5055824;28;20554;-56
2022/04/01 08:19:10;;;;;;;10.30;5.43;;;;;;;0.28;100.00;160647.53;5069780;28;20028;-55
2022/04/01 08:21:36;;;;;;;7.10;5.03;;;;;;;0.33;100.00;160658.28;5067402;28;20539;-56
2022/04/01 08:24:01;;;;;;;6.68;5.25;;;;;;;0.37;100.00;160669.00;5071096;28;20039;-56
2022/04/01 08:26:28;;;;;;;5.97;5.05;;;;;;;0.42;100.00;160682.38;5071982;28;20406;-56
2022/04/01 08:28:53;;;;;;;8.80;4.97;;;;;;;0.54;100.00;160714.59;5073698;28;20025;-56
2022/04/01 08:31:19;;;;;;;8.80;5.43;;;;;;;0.51;100.00;160706.53;5072100;28;20040;-56
2022/04/01 08:33:46;;;;;;;5.03;4.68;;;;;;;0.61;100.00;160733.34;5073765;28;20017;-55
2022/04/01 08:36:12;;;;;;;7.07;5.40;;;;;;;0.14;100.00;160610.00;5071598;28;20025;-56
2022/04/01 08:38:37;;;;;;;6.30;5.57;;;;;;;0.40;100.00;160677.06;5073772;28;20032;-55
2022/04/01 08:41:03;;;;;;;6.18;4.72;;;;;;;0.49;100.00;160701.16;5072090;28;20054;-56
2022/04/01 08:43:30;;;;;;;5.47;4.97;;;;;;;0.82;100.00;160786.97;5072920;28;20064;-56
2022/04/01 08:45:58;;;;;;;12.10;5.95;;;;;;;1.05;100.00;160845.97;5072303;28;20028;-56
2022/04/01 08:48:25;;;;;;;10.33;6.67;;;;;;;1.04;100.00;160843.28;5073202;28;20035;-55
2022/04/01 08:50:51;;;;;;;12.40;5.15;;;;;;;1.30;100.00;160911.69;5073134;28;20032;-56
2022/04/01 08:53:17;;;;;;;7.28;6.15;;;;;;;1.24;100.00;160896.94;5071399;28;20079;-55
2022/04/01 08:55:48;;;;;;;10.70;6.22;;;;;;;1.30;100.00;160910.38;5072678;28;20020;-55
2022/04/01 08:58:17;;;;;;;5.38;4.93;;;;;;;1.46;100.00;160953.25;5071292;28;20410;-55
2022/04/01 09:00:43;;;;;;;7.70;5.28;;;;;;;1.39;100.00;160934.50;5073320;28;20017;-55
2022/04/01 09:03:11;;;;;;;6.43;5.65;;;;;;;1.19;100.00;160882.22;5071478;28;20060;-55
2022/04/01 09:05:37;;;;;;;8.20;6.88;;;;;;;1.34;100.00;160921.09;5072878;28;20037;-55
2022/04/01 09:08:08;;;;;;;16.02;11.38;;;;;;;1.54;100.00;160974.75;5070432;28;20050;-55
2022/04/01 09:11:00;;;;;;;8.20;6.13;;;;;;;1.37;100.00;160929.16;5073009;28;20040;-55
2022/04/01 09:13:28;;;;;;;9.55;8.18;;;;;;;1.21;100.00;160888.91;5051653;28;20037;-55
2022/04/01 09:15:54;;;;;;;20.33;7.93;;;;;;;1.01;100.00;160835.22;5051529;28;20511;-55
2022/04/01 09:18:36;;;;;;;7.78;6.45;;;;;;;1.29;100.00;160907.69;5052340;28;20024;-56
2022/04/01 09:21:02;;;;;;;7.93;6.63;;;;;;;1.33;100.00;160919.78;5051289;28;20045;-55
2022/04/01 09:23:27;;;;;;;10.60;7.22;;;;;;;1.64;100.00;160998.91;5052721;28;20024;-55
2022/04/01 09:25:54;;;;;;;8.52;6.20;;;;;;;1.66;100.00;161004.28;5052265;28;20028;-55
2022/04/01 09:28:29;;;;;;;6.35;5.70;;;;;;;1.78;100.00;161036.47;5064923;28;20055;-55
2022/04/01 09:31:15;;;;;;;10.98;6.13;;;;;;;1.77;100.00;161033.78;5063636;28;20109;-55
2022/04/01 09:33:43;;;;;;;7.53;5.65;;;;;;;1.75;100.00;161028.38;5036932;28;20016;-55
2022/04/01 09:36:11;;;;;;;5.95;5.45;;;;;;;1.92;100.00;161071.34;5050575;28;20021;-55
2022/04/01 09:38:37;;;;;;;8.45;6.07;;;;;;;1.83;100.00;161048.53;5052767;28;20430;-55
2022/04/01 09:41:04;;;;;;;7.57;6.82;;;;;;;2.06;100.00;161108.91;5050449;28;20021;-55
2022/04/01 09:43:36;;;;;;;7.50;6.90;;;;;;;2.02;100.00;161098.19;5052179;28;20473;-55
2022/04/01 09:46:20;;;;;;;11.07;7.00;;;;;;;1.91;100.00;161070.03;5052075;28;20021;-55
2022/04/01 09:48:47;;;;;;;7.00;6.30;;;;;;;1.94;100.00;161078.03;5072248;28;20382;-55
2022/04/01 09:51:13;;;;;;;7.55;6.43;;;;;;;1.83;100.00;161048.53;5070558;28;20020;-55
2022/04/01 09:53:38;;;;;;;6.35;5.82;;;;;;;2.04;100.00;161103.59;5072280;28;20391;-55
2022/04/01 09:56:04;;;;;;;10.40;7.00;;;;;;;2.06;100.00;161108.91;5070401;28;20421;-55
2022/04/01 09:58:30;;;;;;;6.40;5.75;;;;;;;2.18;100.00;161141.16;5071858;28;20028;-55
2022/04/01 10:00:56;;;;;;;6.45;5.88;;;;;;;2.41;100.00;161198.84;5070428;28;20070;-55
2022/04/01 10:03:22;;;;;;;7.82;6.55;;;;;;;2.33;100.00;161180.06;5071409;28;20027;-55
2022/04/01 10:05:48;;;;;;;9.30;6.40;;;;;;;2.50;100.00;161224.34;5064097;28;20036;-55
2022/04/01 10:08:14;;;;;;;7.88;5.93;;;;;;;2.51;100.00;161225.72;5058205;28;20515;-55
2022/04/01 10:10:41;;;;;;;8.10;6.28;;;;;;;2.59;100.00;161245.84;5055345;28;20052;-55
2022/04/01 10:13:32;;;;;;;6.35;5.30;;;;;;;2.54;100.00;161235.13;5068786;28;20044;-55
2022/04/01 10:15:59;;;;;;;10.10;6.55;;;;;;;2.50;100.00;161223.03;5053189;28;20104;-54
2022/04/01 10:18:26;;;;;;;7.50;5.95;;;;;;;2.56;100.00;161237.81;5062629;28;20021;-55
2022/04/01 10:20:54;;;;;;;10.18;6.93;;;;;;;2.40;100.00;161197.53;5050689;28;20037;-55
2022/04/01 10:23:21;;;;;;;10.60;7.25;;;;;;;2.60;100.00;161248.53;5066816;28;20503;-54
2022/04/01 10:26:01;;;;;;;8.40;6.68;;;;;;;2.47;100.00;161216.31;5070434;28;20036;-55
2022/04/01 10:28:27;;;;;;;8.65;6.13;;;;;;;2.24;100.00;161155.88;5051814;28;20041;-55
2022/04/01 10:30:58;;;;;;;10.85;7.75;;;;;;;2.22;100.00;161151.88;5062899;28;20112;-55
2022/04/01 10:33:33;;;;;;;16.48;7.43;;;;;;;2.40;100.00;161197.53;5069246;28;20527;-56
2022/04/01 10:35:59;;;;;;;26.17;8.50;;;;;;;2.41;100.00;161200.22;5055151;28;20108;-55
2022/04/01 10:38:28;;;;;;;16.52;7.03;;;;;;;2.59;100.00;161245.84;5069496;28;20029;-55
2022/04/01 10:41:05;;;;;;;7.88;6.95;;;;;;;2.74;100.00;161286.13;5061546;28;20035;-55
2022/04/01 10:43:31;;;;;;;10.13;5.97;;;;;;;2.70;100.00;161275.41;5068133;28;20131;-55
2022/04/01 10:46:02;;;;;;;8.95;6.47;;;;;;;2.33;100.00;161178.75;5068013;28;20033;-55
2022/04/01 10:53:58;;;;;;;8.15;7.35;;;;;;;2.34;100.00;161182.75;5070689;28;20560;-54
2022/04/01 10:56:24;;;;;;;9.77;6.32;;;;;;;2.30;100.00;161170.66;5068770;28;20051;-55
2022/04/01 10:59:04;;;;;;;9.55;8.30;;;;;;;2.25;100.00;161157.25;5070615;28;20111;-55
2022/04/01 11:01:31;;;;;;;9.68;5.72;;;;;;;2.63;100.00;161257.94;5069176;28;20040;-54
2022/04/01 11:04:01;;;;;;;7.95;5.97;;;;;;;2.68;100.00;161270.03;5070325;28;20028;-55
2022/04/01 11:06:27;;;;;;;12.23;6.25;;;;;;;2.48;100.00;161217.66;5068493;28;20076;-55
2022/04/01 11:08:54;;;;;;;7.60;6.05;;;;;;;2.37;100.00;161190.84;5071162;28;20029;-55
2022/04/01 11:11:20;;;;;;;11.20;6.90;;;;;;;2.59;100.00;161245.84;5058919;28;20044;-55
2022/04/01 11:14:05;;;;;;;8.27;5.85;;;;;;;2.56;100.00;161237.81;5049302;28;20025;-55
2022/04/01 11:16:47;;;;;;;9.13;5.70;;;;;;;2.21;100.00;161149.19;5051253;28;20097;-57
2022/04/01 11:19:15;;;;;;;7.45;6.07;;;;;;;2.39;100.00;161194.84;5046374;28;20017;-55
2022/04/01 11:21:42;;;;;;;9.20;6.65;;;;;;;2.45;100.00;161210.94;5052980;28;20040;-56
2022/04/01 11:24:28;;;;;;;7.55;6.85;;;;;;;2.47;100.00;161216.31;5050115;28;20034;-55
2022/04/01 11:26:53;;;;;;;8.30;7.50;;;;;;;2.14;100.00;161130.41;5029293;28;20049;-55
2022/04/01 11:29:23;;;;;;;10.05;6.70;;;;;;;1.90;100.00;161068.66;5039975;28;20032;-55
2022/04/01 11:32:00;;;;;;;7.47;6.78;;;;;;;1.70;100.00;161015.00;5056496;28;20044;-55
2022/04/01 11:34:25;;;;;;;7.85;7.07;;;;;;;1.56;100.00;160980.13;5070466;28;20032;-55